Time;durP1;ratioP1;P1;durP2;ratioP2;P2;SDS_P1;SDS_P2;PMS_P1;PMS_P2;Temp;Humidity;BMP_temperature;BMP_pressure;BME280_temperature;BME280_humidity;BME280_pressure;Samples;Min_cycle;Max_cycle;Signal;HPM_P1;HPM_P2
2022/03/07 00:01:18;;;;;;;84.47;51.20;;;2.20;56.20;;;;;;4937106;29;20047;-77
2022/03/07 00:03:44;;;;;;;247.63;151.65;;;2.20;56.40;;;;;;4948664;29;20036;-75
2022/03/07 00:06:10;;;;;;;37.72;26.00;;;2.20;56.70;;;;;;4942481;29;20040;-76
2022/03/07 00:08:36;;;;;;;9.27;8.23;;;2.10;57.10;;;;;;4937843;29;20378;-76
2022/03/07 00:11:03;;;;;;;10.98;9.40;;;2.10;57.60;;;;;;4951090;29;20043;-76
2022/03/07 00:13:29;;;;;;;11.32;8.65;;;2.10;58.10;;;;;;4943679;29;20433;-75
2022/03/07 00:15:55;;;;;;;9.45;8.23;;;2.10;58.40;;;;;;4941795;28;20044;-75
2022/03/07 00:18:22;;;;;;;10.95;8.57;;;2.10;58.60;;;;;;4940768;29;20035;-81
2022/03/07 00:20:48;;;;;;;12.73;9.45;;;2.10;58.80;;;;;;4939567;29;20023;-74
2022/03/07 00:23:15;;;;;;;9.90;8.90;;;2.00;58.90;;;;;;4937712;29;20027;-75
2022/03/07 00:25:41;;;;;;;10.45;9.35;;;2.00;58.90;;;;;;4941034;29;20095;-74
2022/03/07 00:28:07;;;;;;;16.38;9.00;;;2.00;59.20;;;;;;4951995;29;20050;-75
2022/03/07 00:30:34;;;;;;;15.38;10.10;;;2.00;59.30;;;;;;4946009;29;20039;-74
2022/03/07 00:33:00;;;;;;;12.98;9.73;;;2.00;59.50;;;;;;4953559;29;21514;-75
2022/03/07 00:35:27;;;;;;;15.88;9.63;;;1.90;60.00;;;;;;4944585;29;20121;-74
2022/03/07 00:37:53;;;;;;;11.10;8.88;;;1.90;59.60;;;;;;4937436;29;20043;-75
2022/03/07 00:40:20;;;;;;;14.18;9.07;;;1.90;59.70;;;;;;4953068;28;20048;-75
2022/03/07 00:42:46;;;;;;;10.20;8.27;;;1.90;59.80;;;;;;4936825;29;20488;-75
2022/03/07 00:45:12;;;;;;;11.90;8.35;;;1.90;60.00;;;;;;4937632;29;20109;-75
2022/03/07 00:47:38;;;;;;;11.38;10.02;;;1.80;60.20;;;;;;4941797;29;20027;-75
2022/03/07 00:50:06;;;;;;;9.48;8.35;;;1.80;60.50;;;;;;4936769;29;20040;-79
2022/03/07 00:52:33;;;;;;;9.25;7.55;;;1.70;60.50;;;;;;4945386;29;20047;-75
2022/03/07 00:54:59;;;;;;;10.55;8.68;;;1.70;60.70;;;;;;4948363;29;20054;-76
2022/03/07 00:57:25;;;;;;;10.45;6.78;;;1.70;60.80;;;;;;4958975;28;20056;-75
2022/03/07 00:59:52;;;;;;;14.80;8.57;;;1.70;61.00;;;;;;4962136;28;20055;-74
2022/03/07 01:02:18;;;;;;;11.13;7.15;;;1.70;61.20;;;;;;4937079;29;20048;-75
2022/03/07 01:04:44;;;;;;;8.65;6.97;;;1.70;61.30;;;;;;4940921;29;20485;-77
2022/03/07 01:07:10;;;;;;;16.15;7.70;;;1.60;61.50;;;;;;4941538;29;20040;-75
2022/03/07 01:09:36;;;;;;;7.55;6.35;;;1.60;61.70;;;;;;4946537;29;20063;-74
2022/03/07 01:12:04;;;;;;;7.28;6.57;;;1.60;61.70;;;;;;4939742;29;20357;-75
2022/03/07 01:14:31;;;;;;;7.95;7.07;;;1.60;61.90;;;;;;4938879;29;20035;-75
2022/03/07 01:16:57;;;;;;;7.18;6.47;;;1.50;62.00;;;;;;4937209;29;20031;-75
2022/03/07 01:19:23;;;;;;;6.07;5.38;;;1.50;62.00;;;;;;4942215;29;20047;-78
2022/03/07 01:21:51;;;;;;;6.25;5.65;;;1.50;61.90;;;;;;4935812;29;20039;-76
2022/03/07 01:24:18;;;;;;;9.95;5.90;;;1.40;62.00;;;;;;4936385;29;20028;-75
2022/03/07 01:26:45;;;;;;;5.80;5.18;;;1.40;62.20;;;;;;4940286;28;20066;-75
2022/03/07 01:29:12;;;;;;;5.60;5.10;;;1.40;62.20;;;;;;4940557;29;20055;-75
2022/03/07 01:31:38;;;;;;;5.82;5.30;;;1.40;62.10;;;;;;4941451;29;20027;-75
2022/03/07 01:34:05;;;;;;;7.80;5.70;;;1.40;62.00;;;;;;4945037;29;20043;-75
2022/03/07 01:36:31;;;;;;;9.57;4.60;;;1.30;61.80;;;;;;4951469;29;20031;-75
2022/03/07 01:38:57;;;;;;;5.20;4.70;;;1.30;61.90;;;;;;4937698;29;20039;-75
2022/03/07 01:41:24;;;;;;;5.38;4.88;;;1.20;62.00;;;;;;4945706;29;20032;-75
2022/03/07 01:43:50;;;;;;;11.32;4.78;;;1.20;62.00;;;;;;4941657;29;20031;-75
2022/03/07 01:46:16;;;;;;;7.25;4.72;;;1.20;62.10;;;;;;4942430;29;20047;-75
2022/03/07 01:48:42;;;;;;;7.93;4.95;;;1.20;61.80;;;;;;4940964;29;20054;-77
2022/03/07 01:51:11;;;;;;;4.97;4.47;;;1.20;61.80;;;;;;4935739;29;20039;-75
2022/03/07 01:53:39;;;;;;;4.90;3.88;;;1.20;61.80;;;;;;4940851;29;20440;-75
2022/03/07 01:56:07;;;;;;;4.10;3.65;;;1.20;61.40;;;;;;4959739;28;20044;-75
2022/03/07 01:58:35;;;;;;;10.27;5.85;;;1.20;61.30;;;;;;4953167;28;20062;-75
2022/03/07 02:01:02;;;;;;;3.88;3.55;;;1.10;61.50;;;;;;4949162;28;20043;-75
2022/03/07 02:03:28;;;;;;;6.78;4.22;;;1.00;61.50;;;;;;4948963;29;20512;-75
2022/03/07 02:05:55;;;;;;;5.22;4.15;;;1.00;61.80;;;;;;4950440;28;20048;-75
2022/03/07 02:08:26;;;;;;;5.82;4.20;;;1.00;62.10;;;;;;4946589;29;20052;-74
2022/03/07 02:11:08;;;;;;;4.57;4.18;;;0.90;62.20;;;;;;4946297;29;20378;-75
2022/03/07 02:13:35;;;;;;;6.35;3.85;;;0.90;62.30;;;;;;4949548;28;20055;-75
2022/03/07 02:16:04;;;;;;;4.25;3.85;;;0.90;62.40;;;;;;4951935;29;20377;-74
2022/03/07 02:18:33;;;;;;;5.43;3.70;;;0.80;62.50;;;;;;4955605;28;20039;-75
2022/03/07 02:21:18;;;;;;;9.02;4.28;;;0.70;62.60;;;;;;4943136;29;20050;-74
2022/03/07 02:24:03;;;;;;;4.25;3.58;;;0.70;62.70;;;;;;4952496;29;20050;-75
2022/03/07 02:26:30;;;;;;;4.38;3.97;;;0.80;62.50;;;;;;4955722;28;20421;-74
2022/03/07 02:28:57;;;;;;;3.47;2.53;;;0.70;62.30;;;;;;4963998;28;20058;-74
2022/03/07 02:31:29;;;;;;;5.55;3.67;;;0.70;62.30;;;;;;4949241;28;20051;-75
2022/03/07 02:33:57;;;;;;;4.03;3.05;;;0.70;61.90;;;;;;4941315;29;20066;-74
2022/03/07 02:36:24;;;;;;;6.40;3.22;;;0.70;61.90;;;;;;4955730;28;20044;-87
2022/03/07 02:38:51;;;;;;;3.17;2.85;;;0.70;61.50;;;;;;4963401;28;20047;-75
2022/03/07 02:41:19;;;;;;;3.95;3.10;;;0.70;61.30;;;;;;4936187;29;20129;-75
2022/03/07 02:43:48;;;;;;;4.50;3.37;;;0.70;61.20;;;;;;4943922;29;20070;-74
2022/03/07 02:46:15;;;;;;;5.55;2.85;;;0.70;61.40;;;;;;4941790;29;20044;-74
2022/03/07 02:48:41;;;;;;;3.42;2.60;;;0.70;61.50;;;;;;4937238;29;20043;-75
2022/03/07 02:51:07;;;;;;;5.25;3.58;;;0.70;60.80;;;;;;4940571;29;20070;-74
2022/03/07 02:53:34;;;;;;;3.78;2.90;;;0.70;60.80;;;;;;4938450;28;20043;-74
2022/03/07 02:56:00;;;;;;;4.45;2.00;;;0.60;60.50;;;;;;4952108;29;20050;-75
2022/03/07 02:58:26;;;;;;;3.60;2.72;;;0.60;60.50;;;;;;4942195;29;20400;-74
2022/03/07 03:00:53;;;;;;;3.42;2.47;;;0.60;60.20;;;;;;4950916;28;20054;-75
2022/03/07 03:03:19;;;;;;;3.53;2.90;;;0.60;60.30;;;;;;4945280;29;20039;-75
2022/03/07 03:05:45;;;;;;;4.15;2.58;;;0.60;60.20;;;;;;4938905;29;20039;-74
2022/03/07 03:08:11;;;;;;;2.58;1.83;;;0.60;59.60;;;;;;4935137;29;20044;-75
2022/03/07 03:10:38;;;;;;;2.58;1.90;;;0.60;59.80;;;;;;4933468;29;20047;-74
2022/03/07 03:13:04;;;;;;;2.95;2.33;;;0.60;59.50;;;;;;4934569;29;20050;-75
2022/03/07 03:15:30;;;;;;;3.40;1.88;;;0.60;59.20;;;;;;4937170;29;20102;-75
2022/03/07 03:17:56;;;;;;;6.53;2.95;;;0.60;59.10;;;;;;4944410;29;20038;-76
2022/03/07 03:20:22;;;;;;;4.40;2.70;;;0.50;59.40;;;;;;4948348;28;20137;-74
2022/03/07 03:22:49;;;;;;;2.70;2.40;;;0.50;59.30;;;;;;4945362;29;20059;-74
2022/03/07 03:25:15;;;;;;;5.07;2.67;;;0.50;59.20;;;;;;4941159;28;20048;-74
2022/03/07 03:27:42;;;;;;;2.50;2.30;;;0.50;59.20;;;;;;4933920;29;20032;-74
2022/03/07 03:30:11;;;;;;;2.92;1.90;;;0.50;58.90;;;;;;4934117;29;20414;-75
2022/03/07 03:32:37;;;;;;;2.40;2.13;;;0.50;59.00;;;;;;4936730;29;20039;-75
2022/03/07 03:35:04;;;;;;;2.88;2.30;;;0.40;58.90;;;;;;4936538;29;20048;-75
2022/03/07 03:37:30;;;;;;;10.00;2.55;;;0.40;58.90;;;;;;4950870;29;20058;-74
2022/03/07 03:39:57;;;;;;;2.53;1.70;;;0.40;59.20;;;;;;4953959;29;20351;-82
2022/03/07 03:42:23;;;;;;;2.22;2.03;;;0.40;58.90;;;;;;4956378;29;20043;-75
2022/03/07 03:44:50;;;;;;;3.53;2.60;;;0.40;59.10;;;;;;4935537;29;20039;-75
2022/03/07 03:47:16;;;;;;;3.30;1.80;;;0.40;58.80;;;;;;4940047;29;20151;-75
2022/03/07 03:49:42;;;;;;;2.58;2.38;;;0.40;58.50;;;;;;4934273;29;20038;-74
2022/03/07 03:52:09;;;;;;;1.70;1.58;;;0.40;58.50;;;;;;4937973;29;20044;-75
2022/03/07 03:54:35;;;;;;;2.85;2.53;;;0.30;58.30;;;;;;4947772;29;20040;-74
2022/03/07 03:57:02;;;;;;;2.40;1.95;;;0.30;58.50;;;;;;4940585;29;20050;-75
2022/03/07 03:59:28;;;;;;;3.28;2.00;;;0.30;58.50;;;;;;4937324;29;20043;-75
2022/03/07 04:01:54;;;;;;;3.22;2.05;;;0.30;58.50;;;;;;4937176;29;20052;-74
2022/03/07 04:04:21;;;;;;;3.72;2.00;;;0.20;58.20;;;;;;4937631;29;20032;-74
2022/03/07 04:06:47;;;;;;;2.17;1.67;;;0.30;58.10;;;;;;4937513;29;20392;-75
2022/03/07 04:09:18;;;;;;;3.67;2.53;;;0.30;58.20;;;;;;4944480;29;20043;-74
2022/03/07 04:11:45;;;;;;;2.90;2.30;;;0.20;58.00;;;;;;4936980;29;20222;-75
2022/03/07 04:14:11;;;;;;;2.97;1.95;;;0.20;58.20;;;;;;4944515;29;20042;-74
2022/03/07 04:16:38;;;;;;;3.83;2.35;;;0.20;58.10;;;;;;4947997;29;20031;-75
2022/03/07 04:19:06;;;;;;;3.25;2.45;;;0.20;58.10;;;;;;4951713;28;20047;-76
2022/03/07 04:21:33;;;;;;;3.38;2.72;;;0.10;58.10;;;;;;4935796;29;20028;-76
2022/03/07 04:23:59;;;;;;;3.05;2.75;;;0.20;58.00;;;;;;4937918;29;20031;-76
2022/03/07 04:26:26;;;;;;;3.83;2.65;;;0.10;57.80;;;;;;4937252;29;20038;-75
2022/03/07 04:28:52;;;;;;;2.95;2.45;;;0.00;58.00;;;;;;4938506;29;20051;-75
2022/03/07 04:31:18;;;;;;;4.60;2.60;;;0.00;58.20;;;;;;4946189;29;20039;-75
2022/03/07 04:33:44;;;;;;;3.97;2.75;;;0.00;58.40;;;;;;4943622;29;20051;-75
2022/03/07 04:36:13;;;;;;;5.90;3.15;;;-0.10;58.60;;;;;;4937568;29;20040;-75
2022/03/07 04:38:39;;;;;;;4.05;3.28;;;-0.10;58.50;;;;;;4954986;29;20047;-75
2022/03/07 04:41:05;;;;;;;3.08;2.78;;;-0.10;58.60;;;;;;4943503;29;20477;-75
2022/03/07 04:43:31;;;;;;;3.25;2.58;;;-0.20;58.80;;;;;;4945483;29;20027;-75
2022/03/07 04:45:58;;;;;;;6.28;2.75;;;-0.20;58.80;;;;;;4949350;29;20377;-75
2022/03/07 04:48:25;;;;;;;4.63;3.30;;;-0.20;58.50;;;;;;4936701;29;20040;-88
2022/03/07 04:50:51;;;;;;;2.85;2.58;;;-0.20;58.60;;;;;;4936589;29;20035;-75
2022/03/07 04:53:18;;;;;;;4.30;3.72;;;-0.20;58.50;;;;;;4948776;29;20330;-76
2022/03/07 04:55:44;;;;;;;4.65;3.13;;;-0.30;59.00;;;;;;4954567;29;20042;-76
2022/03/07 04:58:10;;;;;;;3.47;2.95;;;-0.30;58.60;;;;;;4946216;29;20038;-74
2022/03/07 05:00:36;;;;;;;6.20;3.92;;;-0.30;58.30;;;;;;4936991;29;20060;-75
2022/03/07 05:03:02;;;;;;;3.97;2.78;;;-0.30;58.20;;;;;;4945695;29;20377;-74
2022/03/07 05:05:29;;;;;;;4.30;3.10;;;-0.30;58.60;;;;;;4940035;29;20036;-75
2022/03/07 05:07:55;;;;;;;4.18;3.50;;;-0.30;58.10;;;;;;4938130;29;20512;-75
2022/03/07 05:10:22;;;;;;;3.38;3.00;;;-0.40;58.30;;;;;;4938920;29;20044;-76
2022/03/07 05:12:48;;;;;;;5.13;4.53;;;-0.40;58.30;;;;;;4943495;29;20035;-76
2022/03/07 05:15:15;;;;;;;5.28;3.85;;;-0.50;58.40;;;;;;4936967;29;20039;-76
2022/03/07 05:17:43;;;;;;;2.38;2.17;;;-0.50;58.30;;;;;;4943225;29;20083;-76
2022/03/07 05:20:11;;;;;;;5.30;3.67;;;-0.40;58.10;;;;;;4942668;28;20405;-77
2022/03/07 05:22:38;;;;;;;5.80;3.45;;;-0.50;58.00;;;;;;4945653;29;20035;-76
2022/03/07 05:25:06;;;;;;;5.55;4.07;;;-0.50;57.90;;;;;;4936820;29;20039;-76
2022/03/07 05:27:32;;;;;;;6.90;3.35;;;-0.50;57.90;;;;;;4938348;29;20496;-77
2022/03/07 05:29:58;;;;;;;3.53;3.00;;;-0.50;58.00;;;;;;4935665;29;20047;-76
2022/03/07 05:32:24;;;;;;;5.30;4.18;;;-0.60;57.80;;;;;;4944060;29;20043;-76
2022/03/07 05:34:50;;;;;;;4.88;3.72;;;-0.60;57.70;;;;;;4943192;29;20062;-76
2022/03/07 05:37:16;;;;;;;4.90;4.22;;;-0.60;58.00;;;;;;4943658;29;20384;-76
2022/03/07 05:39:43;;;;;;;4.38;3.70;;;-0.70;58.10;;;;;;4943216;29;20397;-76
2022/03/07 05:42:09;;;;;;;3.90;3.30;;;-0.70;58.00;;;;;;4943882;29;20035;-76
2022/03/07 05:44:35;;;;;;;4.22;3.60;;;-0.80;58.30;;;;;;4936750;29;20038;-77
2022/03/07 05:47:01;;;;;;;4.82;3.83;;;-0.80;58.60;;;;;;4943115;29;20032;-77
2022/03/07 05:49:27;;;;;;;4.28;2.95;;;-0.90;58.80;;;;;;4949982;29;20500;-77
2022/03/07 05:51:54;;;;;;;4.45;3.97;;;-1.00;59.00;;;;;;4941779;29;20393;-76
2022/03/07 05:54:20;;;;;;;4.47;3.88;;;-1.00;59.50;;;;;;4946495;29;20046;-76
2022/03/07 05:56:46;;;;;;;3.63;2.85;;;-1.00;59.20;;;;;;4942828;29;20050;-76
2022/03/07 05:59:12;;;;;;;3.95;3.60;;;-1.10;59.30;;;;;;4953589;29;20043;-77
2022/03/07 06:01:39;;;;;;;7.80;4.65;;;-1.10;59.30;;;;;;4947127;29;20059;-77
2022/03/07 06:04:05;;;;;;;3.58;3.22;;;-1.20;59.40;;;;;;4947344;29;20043;-76
2022/03/07 06:06:31;;;;;;;4.80;3.03;;;-1.20;59.60;;;;;;4938666;29;20050;-76
2022/03/07 06:08:59;;;;;;;8.43;4.85;;;-1.20;59.90;;;;;;4938785;29;20297;-82
2022/03/07 06:11:27;;;;;;;4.45;3.75;;;-1.10;59.40;;;;;;4942045;29;20405;-81
2022/03/07 06:13:53;;;;;;;7.13;4.05;;;-1.10;59.20;;;;;;4944087;28;20047;-76
2022/03/07 06:16:19;;;;;;;21.63;4.32;;;-1.10;59.10;;;;;;4946002;29;20035;-75
2022/03/07 06:18:45;;;;;;;4.40;3.72;;;-1.10;59.10;;;;;;4938492;29;20039;-76
2022/03/07 06:21:12;;;;;;;4.20;3.70;;;-1.10;59.10;;;;;;4935668;29;20036;-77
2022/03/07 06:23:38;;;;;;;17.88;4.35;;;-1.10;58.80;;;;;;4944915;29;20035;-76
2022/03/07 06:26:05;;;;;;;10.10;4.13;;;-1.00;58.50;;;;;;4937437;29;20043;-75
2022/03/07 06:28:32;;;;;;;3.63;3.33;;;-1.00;58.20;;;;;;4935532;29;20035;-76
2022/03/07 06:30:59;;;;;;;3.85;3.50;;;-0.90;58.30;;;;;;4940906;29;20047;-76
2022/03/07 06:33:25;;;;;;;7.68;4.60;;;-0.90;58.20;;;;;;4948981;29;20035;-90
2022/03/07 06:35:52;;;;;;;4.85;4.40;;;-0.90;58.30;;;;;;4948871;29;20035;-76
2022/03/07 06:38:19;;;;;;;10.70;3.40;;;-0.90;58.30;;;;;;4945833;29;20038;-76
2022/03/07 06:40:46;;;;;;;6.90;4.63;;;-0.90;58.00;;;;;;4948254;29;20861;-76
2022/03/07 06:43:12;;;;;;;4.25;3.72;;;-0.90;57.90;;;;;;4942860;29;20031;-75
2022/03/07 06:45:39;;;;;;;5.65;4.55;;;-0.90;58.10;;;;;;4941462;29;20028;-76
2022/03/07 06:48:06;;;;;;;8.90;5.72;;;-0.90;58.00;;;;;;4950146;29;20031;-76
2022/03/07 06:50:32;;;;;;;5.10;4.22;;;-0.90;58.00;;;;;;4946683;29;20062;-82
2022/03/07 06:52:59;;;;;;;4.82;4.22;;;-0.70;57.70;;;;;;4953034;29;20042;-76
2022/03/07 06:55:26;;;;;;;4.47;3.72;;;-0.50;57.30;;;;;;4945157;29;20038;-91
2022/03/07 06:57:53;;;;;;;5.13;3.88;;;-0.50;56.80;;;;;;4950560;29;20066;-75
2022/03/07 07:00:19;;;;;;;5.38;4.35;;;-0.60;56.70;;;;;;4937450;29;20047;-75
2022/03/07 07:02:46;;;;;;;5.88;4.53;;;-0.60;56.80;;;;;;4935466;29;20239;-76
2022/03/07 07:05:15;;;;;;;5.22;4.72;;;-0.60;56.80;;;;;;4935222;29;20397;-75
2022/03/07 07:07:42;;;;;;;4.55;3.92;;;-0.60;56.90;;;;;;4942309;29;20040;-75
2022/03/07 07:10:10;;;;;;;7.93;4.22;;;-0.60;56.70;;;;;;4944689;29;20027;-75
2022/03/07 07:12:37;;;;;;;4.07;3.67;;;-0.60;56.60;;;;;;4937205;28;20389;-75
2022/03/07 07:15:06;;;;;;;4.43;3.33;;;-0.60;56.60;;;;;;4937287;29;20039;-74
2022/03/07 07:17:33;;;;;;;6.18;5.07;;;-0.50;56.40;;;;;;4942970;29;20500;-74
2022/03/07 07:19:59;;;;;;;8.27;4.57;;;-0.30;56.40;;;;;;4934175;29;20075;-75
2022/03/07 07:22:26;;;;;;;5.05;4.32;;;-0.30;56.10;;;;;;4939716;29;20047;-74
2022/03/07 07:24:52;;;;;;;3.90;3.45;;;-0.30;55.80;;;;;;4950977;28;20039;-75
2022/03/07 07:27:18;;;;;;;5.22;4.13;;;-0.20;55.90;;;;;;4939199;29;20035;-75
2022/03/07 07:29:44;;;;;;;4.45;3.53;;;-0.10;55.70;;;;;;4941418;29;20050;-75
2022/03/07 07:32:11;;;;;;;4.32;3.58;;;0.00;55.30;;;;;;4937917;29;20155;-75
2022/03/07 07:34:37;;;;;;;5.18;4.18;;;0.10;55.20;;;;;;4938146;29;20040;-76
2022/03/07 07:37:03;;;;;;;4.40;4.03;;;0.10;55.40;;;;;;4944878;29;20040;-75
2022/03/07 07:39:29;;;;;;;7.28;4.57;;;0.30;54.90;;;;;;4938015;29;20043;-75
2022/03/07 07:41:56;;;;;;;5.43;4.32;;;0.40;55.00;;;;;;4945406;29;20031;-75
2022/03/07 07:44:22;;;;;;;7.30;5.07;;;0.60;54.10;;;;;;4944831;28;20043;-77
2022/03/07 07:46:49;;;;;;;5.20;4.70;;;0.90;53.60;;;;;;4947184;29;20047;-75
2022/03/07 07:49:15;;;;;;;3.90;3.50;;;1.50;52.90;;;;;;4938426;29;20040;-73
2022/03/07 07:51:41;;;;;;;5.10;4.65;;;2.10;50.90;;;;;;4952951;29;20031;-76
2022/03/07 07:54:08;;;;;;;6.45;5.38;;;2.00;50.30;;;;;;4938357;29;20035;-73
2022/03/07 07:56:34;;;;;;;6.97;4.78;;;1.90;50.60;;;;;;4949246;29;20040;-76
2022/03/07 07:59:00;;;;;;;4.63;4.07;;;2.00;51.30;;;;;;4960323;29;20049;-73
2022/03/07 08:01:28;;;;;;;5.60;4.32;;;2.20;50.00;;;;;;4942571;29;20051;-78
2022/03/07 08:03:55;;;;;;;6.30;4.55;;;2.00;50.00;;;;;;4952218;29;20035;-72
2022/03/07 08:06:21;;;;;;;6.68;4.75;;;1.70;50.20;;;;;;4938295;29;20043;-76
2022/03/07 08:08:47;;;;;;;9.00;4.47;;;1.50;50.40;;;;;;4937905;29;20050;-74
2022/03/07 08:11:13;;;;;;;4.32;3.92;;;1.70;51.10;;;;;;4936937;29;20465;-75
2022/03/07 08:13:39;;;;;;;5.10;4.63;;;2.20;49.70;;;;;;4937530;29;20413;-74
2022/03/07 08:16:06;;;;;;;5.70;4.68;;;2.20;49.50;;;;;;4946006;29;20032;-75
2022/03/07 08:18:32;;;;;;;5.68;5.18;;;2.20;48.80;;;;;;4937044;29;20054;-78
2022/03/07 08:21:00;;;;;;;7.43;4.90;;;2.00;49.30;;;;;;4934821;29;20097;-79
2022/03/07 08:23:27;;;;;;;4.78;4.38;;;2.10;49.50;;;;;;4951946;28;20412;-75
2022/03/07 08:25:53;;;;;;;6.53;5.32;;;2.80;49.80;;;;;;4937510;29;20036;-75
2022/03/07 08:28:21;;;;;;;6.53;4.32;;;3.60;47.10;;;;;;4935794;29;20039;-76
2022/03/07 08:30:48;;;;;;;4.68;4.07;;;3.20;46.90;;;;;;4950005;28;20044;-74
2022/03/07 08:33:14;;;;;;;4.78;4.38;;;3.50;47.30;;;;;;4938523;29;20042;-75
2022/03/07 08:35:40;;;;;;;5.43;4.53;;;2.90;47.00;;;;;;4938653;29;20047;-75
2022/03/07 08:38:07;;;;;;;10.10;4.75;;;3.60;47.70;;;;;;4941448;29;20034;-76
2022/03/07 08:40:33;;;;;;;5.75;4.95;;;3.90;46.80;;;;;;4938907;29;20043;-77
2022/03/07 08:42:59;;;;;;;5.30;4.90;;;4.40;45.10;;;;;;4951320;28;20417;-75
2022/03/07 08:45:26;;;;;;;7.10;5.20;;;4.60;44.30;;;;;;4936773;29;20042;-76
2022/03/07 08:47:53;;;;;;;6.25;4.65;;;3.80;45.70;;;;;;4940827;29;20036;-76
2022/03/07 08:50:19;;;;;;;7.32;4.70;;;4.20;45.70;;;;;;4950869;29;20051;-75
2022/03/07 08:52:47;;;;;;;8.48;5.15;;;4.30;44.50;;;;;;4936138;29;20265;-75
2022/03/07 08:55:13;;;;;;;6.03;4.95;;;4.20;44.10;;;;;;4936833;29;20035;-75
2022/03/07 08:57:39;;;;;;;5.40;4.88;;;3.90;44.20;;;;;;4936616;29;20351;-75
2022/03/07 09:00:11;;;;;;;5.18;4.68;;;2.90;45.90;;;;;;4936503;29;20032;-75
2022/03/07 09:02:38;;;;;;;7.15;5.28;;;2.40;47.10;;;;;;4935682;29;20035;-75
2022/03/07 09:05:05;;;;;;;6.30;5.70;;;2.60;46.40;;;;;;4936824;29;20043;-76
2022/03/07 09:07:31;;;;;;;5.90;4.65;;;3.20;46.00;;;;;;4936407;29;20055;-75
2022/03/07 09:09:58;;;;;;;5.53;5.05;;;3.80;44.50;;;;;;4936572;29;20626;-75
2022/03/07 09:12:27;;;;;;;6.90;4.95;;;4.10;44.30;;;;;;4937816;29;20031;-76
2022/03/07 09:14:56;;;;;;;4.88;4.47;;;4.00;44.40;;;;;;4952082;28;20059;-76
2022/03/07 09:17:23;;;;;;;7.15;5.57;;;3.70;44.20;;;;;;4944198;29;20043;-75
2022/03/07 09:19:50;;;;;;;5.20;4.70;;;2.90;45.00;;;;;;4935497;29;20036;-75
2022/03/07 09:22:16;;;;;;;6.45;5.35;;;2.60;46.00;;;;;;4935427;29;20035;-76
2022/03/07 09:24:42;;;;;;;5.97;5.38;;;2.80;46.50;;;;;;4935919;29;20043;-76
2022/03/07 09:27:09;;;;;;;6.90;5.68;;;2.90;45.50;;;;;;4936233;29;20046;-76
2022/03/07 09:29:36;;;;;;;6.28;5.60;;;3.00;45.50;;;;;;4935913;29;20481;-74
2022/03/07 09:32:05;;;;;;;6.72;5.07;;;2.90;46.10;;;;;;4949838;28;20047;-75
2022/03/07 09:34:36;;;;;;;6.00;4.90;;;3.20;45.00;;;;;;4935656;29;20062;-75
2022/03/07 09:37:04;;;;;;;4.20;3.90;;;3.70;44.60;;;;;;4936473;29;20031;-74
2022/03/07 09:39:32;;;;;;;5.53;4.97;;;3.30;44.80;;;;;;4935966;29;20051;-76
2022/03/07 09:41:59;;;;;;;4.78;4.38;;;3.00;45.20;;;;;;4935489;29;20039;-75
2022/03/07 09:44:27;;;;;;;7.15;5.28;;;3.60;45.00;;;;;;4936209;29;20031;-76
2022/03/07 09:46:56;;;;;;;5.72;5.20;;;3.90;44.40;;;;;;4934643;29;20043;-75
2022/03/07 09:49:22;;;;;;;5.90;5.30;;;4.80;42.70;;;;;;4951005;28;20043;-76
2022/03/07 09:51:48;;;;;;;5.55;5.13;;;5.00;42.70;;;;;;4934698;29;20039;-75
2022/03/07 09:54:15;;;;;;;9.02;5.00;;;5.40;42.60;;;;;;4939510;29;20044;-74
2022/03/07 09:56:41;;;;;;;6.32;5.28;;;4.20;42.40;;;;;;4938995;29;20051;-74
2022/03/07 09:59:07;;;;;;;7.30;5.88;;;4.40;43.00;;;;;;4951543;29;20035;-73
2022/03/07 10:01:33;;;;;;;5.38;4.72;;;4.20;42.90;;;;;;4941817;29;20043;-73
2022/03/07 10:04:11;;;;;;;6.88;4.90;;;3.60;44.30;;;;;;4948101;29;20036;-73
2022/03/07 10:06:38;;;;;;;6.80;5.53;;;3.50;44.60;;;;;;4945992;29;20039;-72
2022/03/07 10:09:05;;;;;;;4.85;4.30;;;3.30;45.20;;;;;;4939878;29;20444;-72
2022/03/07 10:11:32;;;;;;;7.15;4.63;;;3.30;45.40;;;;;;4942251;29;20417;-73
2022/03/07 10:14:02;;;;;;;6.50;5.68;;;3.30;44.90;;;;;;4946957;29;20042;-73
2022/03/07 10:16:43;;;;;;;6.53;5.22;;;3.40;45.00;;;;;;4948727;29;20050;-73
2022/03/07 10:19:12;;;;;;;6.78;4.93;;;3.50;45.30;;;;;;4948043;29;20043;-73
2022/03/07 10:21:50;;;;;;;5.20;4.38;;;3.80;44.50;;;;;;4945156;29;20365;-73
2022/03/07 10:24:17;;;;;;;5.63;4.85;;;4.10;44.20;;;;;;4943213;29;20050;-73
2022/03/07 10:26:44;;;;;;;6.03;5.53;;;3.70;43.60;;;;;;4948176;29;20050;-72
2022/03/07 10:29:10;;;;;;;6.50;5.68;;;3.40;44.50;;;;;;4948853;29;20035;-72
2022/03/07 10:31:39;;;;;;;7.25;5.22;;;3.60;44.50;;;;;;4947081;28;20330;-73
2022/03/07 10:34:09;;;;;;;7.13;4.75;;;3.80;43.80;;;;;;4944547;29;20035;-73
2022/03/07 10:36:38;;;;;;;6.60;5.93;;;3.60;44.30;;;;;;4939791;29;20043;-72
2022/03/07 10:39:08;;;;;;;7.03;4.25;;;3.30;44.40;;;;;;4934856;29;20398;-70
2022/03/07 10:41:40;;;;;;;7.68;5.13;;;3.50;44.20;;;;;;4935912;29;20028;-71
2022/03/07 10:44:10;;;;;;;5.80;5.28;;;3.70;44.60;;;;;;4939236;29;20043;-71
2022/03/07 10:46:36;;;;;;;4.72;4.13;;;3.80;43.70;;;;;;4938040;28;20055;-71
2022/03/07 10:49:05;;;;;;;7.13;4.68;;;3.50;43.90;;;;;;4944768;29;20050;-70
2022/03/07 10:51:32;;;;;;;5.40;4.60;;;3.40;44.50;;;;;;4946639;29;20431;-72
2022/03/07 10:54:11;;;;;;;7.45;4.82;;;3.80;43.70;;;;;;4938719;28;20482;-73
2022/03/07 10:56:52;;;;;;;5.28;4.50;;;4.00;43.80;;;;;;4938425;29;20040;-73
2022/03/07 10:59:29;;;;;;;4.13;3.83;;;4.10;43.10;;;;;;4948652;29;20038;-72
2022/03/07 11:02:04;;;;;;;6.70;4.25;;;3.80;43.20;;;;;;4941320;28;20051;-71
2022/03/07 11:04:31;;;;;;;7.38;4.80;;;3.80;43.60;;;;;;4949545;29;20039;-73
2022/03/07 11:06:58;;;;;;;6.72;4.97;;;4.10;43.40;;;;;;4944736;29;20052;-72
2022/03/07 11:09:24;;;;;;;6.30;4.20;;;3.90;43.10;;;;;;4948627;29;20390;-72
2022/03/07 11:11:51;;;;;;;4.40;3.97;;;3.60;43.20;;;;;;4938808;28;20064;-71
2022/03/07 11:14:19;;;;;;;4.95;4.10;;;3.90;43.60;;;;;;4955811;28;20054;-72
2022/03/07 11:16:49;;;;;;;6.85;4.07;;;4.20;43.10;;;;;;4937719;29;20359;-71
2022/03/07 11:19:20;;;;;;;4.47;4.07;;;3.90;43.50;;;;;;4938863;29;20120;-72
2022/03/07 11:21:51;;;;;;;4.45;4.05;;;4.20;43.10;;;;;;4942765;28;20031;-72
2022/03/07 11:24:20;;;;;;;5.45;4.22;;;4.40;43.50;;;;;;4949361;29;20031;-72
2022/03/07 11:26:48;;;;;;;8.07;5.10;;;4.20;43.30;;;;;;4942583;29;20047;-72
2022/03/07 11:29:16;;;;;;;5.97;4.88;;;4.50;43.00;;;;;;4940760;29;20050;-72
2022/03/07 11:31:44;;;;;;;3.95;3.65;;;4.50;43.00;;;;;;4953398;29;20042;-72
2022/03/07 11:34:12;;;;;;;7.78;3.97;;;4.60;42.70;;;;;;4947892;29;20043;-72
2022/03/07 11:36:45;;;;;;;6.38;5.20;;;4.50;42.70;;;;;;4938017;29;20058;-72
2022/03/07 11:39:12;;;;;;;6.50;4.47;;;4.40;42.30;;;;;;4937909;29;20470;-72
2022/03/07 11:41:39;;;;;;;6.72;5.13;;;4.10;42.80;;;;;;4943382;29;20493;-73
2022/03/07 11:44:13;;;;;;;4.95;4.38;;;4.10;42.80;;;;;;4939283;29;20036;-72
2022/03/07 11:46:44;;;;;;;5.45;4.55;;;4.30;42.90;;;;;;4938009;29;20485;-72
2022/03/07 11:49:22;;;;;;;6.05;4.82;;;4.20;42.80;;;;;;4937911;29;20425;-73
2022/03/07 11:51:57;;;;;;;4.15;3.72;;;4.30;42.90;;;;;;4954551;28;20039;-72
2022/03/07 11:54:24;;;;;;;3.75;3.42;;;3.90;43.20;;;;;;4938099;29;20040;-73
2022/03/07 11:56:50;;;;;;;5.30;4.18;;;4.20;43.60;;;;;;4937564;29;20254;-72
2022/03/07 11:59:16;;;;;;;4.80;3.78;;;4.50;43.10;;;;;;4938071;29;20040;-72
2022/03/07 12:01:53;;;;;;;4.05;3.65;;;4.50;43.10;;;;;;4936013;29;20058;-72
2022/03/07 12:04:20;;;;;;;4.28;3.88;;;4.20;43.10;;;;;;4937912;29;20063;-72
2022/03/07 12:06:54;;;;;;;5.75;4.43;;;4.20;43.50;;;;;;4944717;29;20047;-73
2022/03/07 12:09:23;;;;;;;2.80;2.60;;;4.30;43.80;;;;;;4937587;29;20054;-73
2022/03/07 12:11:58;;;;;;;6.60;3.75;;;4.50;43.40;;;;;;4936300;29;20358;-73
2022/03/07 12:14:31;;;;;;;4.47;4.00;;;4.90;42.60;;;;;;4937786;29;20035;-73
2022/03/07 12:17:00;;;;;;;3.85;3.47;;;4.60;42.40;;;;;;4938970;29;20036;-72
2022/03/07 12:19:29;;;;;;;3.97;3.60;;;4.70;42.60;;;;;;4941740;29;20378;-73
2022/03/07 12:21:56;;;;;;;5.97;4.43;;;4.80;42.70;;;;;;4940773;28;20039;-73
2022/03/07 12:24:24;;;;;;;5.25;4.07;;;4.70;42.40;;;;;;4942843;29;20032;-72
2022/03/07 12:26:53;;;;;;;5.10;3.55;;;4.60;42.80;;;;;;4948194;29;20039;-72
2022/03/07 12:29:23;;;;;;;5.03;3.67;;;4.50;42.50;;;;;;4948617;29;20040;-72
2022/03/07 12:31:53;;;;;;;5.50;4.57;;;4.60;43.10;;;;;;4943127;29;20055;-73
2022/03/07 12:34:30;;;;;;;3.70;3.40;;;4.50;42.40;;;;;;4946886;29;20027;-73
2022/03/07 12:37:08;;;;;;;4.35;3.83;;;4.80;43.10;;;;;;4952565;29;20046;-73
2022/03/07 12:39:48;;;;;;;5.13;4.28;;;5.30;42.30;;;;;;4950948;29;20373;-73
2022/03/07 12:42:17;;;;;;;3.97;3.60;;;4.90;42.40;;;;;;4941957;28;20031;-73
2022/03/07 12:44:43;;;;;;;5.82;3.65;;;4.60;42.90;;;;;;4951345;29;20035;-73
2022/03/07 12:47:10;;;;;;;4.35;3.95;;;4.60;42.10;;;;;;4946987;29;20031;-72
2022/03/07 12:49:38;;;;;;;7.60;4.38;;;4.80;42.90;;;;;;4950028;29;20035;-73
2022/03/07 12:52:08;;;;;;;5.60;4.68;;;4.90;43.10;;;;;;4947868;29;20030;-73
2022/03/07 12:54:39;;;;;;;5.15;3.95;;;5.10;42.60;;;;;;4948906;28;20042;-73